Fremont, Ohio
Current Conditions -  °F | °C
As of 2:33 AM on Wednesday 22 Oct 2014 (Local Time) from KPCW Reporting Station
Overcast Overcast  
Wind Chill: 41°   Ceiling: 1300
Heat Index: 46°   Visibility: 10mi
Dew Point: 43°   Wind: 10mph
Humidity: 87%   Direction: 20°NNE
Pressure: 30.16"   Gusts: NA
Location:  41.35°N, 83.11°W
Report Text: KPCW 220633Z AUTO 02009KT 10SM OVC013 08/06 A3016 RMK AO2 $
Loading
Personal Weather Stations






























Interactive Weather Map New forecast layout! Learn more

10-Day Weather Forecast

Advertisements
Track Severe Weather on mobile